Time;durP1;ratioP1;P1;durP2;ratioP2;P2;SDS_P1;SDS_P2;PMS_P1;PMS_P2;Temp;Humidity;BMP_temperature;BMP_pressure;BME280_temperature;BME280_humidity;BME280_pressure;Samples;Min_cycle;Max_cycle;Signal;HPM_P1;HPM_P2
2022/08/15 00:00:49;;;;;;;4.77;4.37;;;;;;;26.66;40.84;100276.13;4954211;28;97157;-52
2022/08/15 00:03:31;;;;;;;4.40;4.10;;;;;;;26.59;41.30;100272.19;4952868;28;97409;-48
2022/08/15 00:06:00;;;;;;;4.37;3.97;;;;;;;26.54;41.03;100276.13;4955417;28;100081;-48
2022/08/15 00:08:27;;;;;;;4.47;4.13;;;;;;;26.50;41.11;100275.88;4953861;28;97070;-47
2022/08/15 00:10:56;;;;;;;4.00;3.70;;;;;;;26.46;41.12;100272.81;4954697;28;96984;-47
2022/08/15 00:13:25;;;;;;;5.37;4.00;;;;;;;26.46;41.32;100275.63;4951160;28;97244;-47
2022/08/15 00:15:54;;;;;;;5.03;3.77;;;;;;;26.42;41.27;100269.00;4954836;28;97071;-47
2022/08/15 00:18:21;;;;;;;4.37;4.07;;;;;;;26.37;41.32;100279.31;4953327;28;96885;-47
2022/08/15 00:20:47;;;;;;;4.33;4.03;;;;;;;26.30;41.43;100266.19;4954047;28;98380;-48
2022/08/15 00:23:14;;;;;;;4.13;3.83;;;;;;;26.25;41.52;100267.28;4954348;28;98058;-47
2022/08/15 00:25:44;;;;;;;4.20;3.90;;;;;;;26.20;41.64;100271.22;4955549;28;100434;-48
2022/08/15 00:28:09;;;;;;;4.87;4.40;;;;;;;26.18;41.71;100264.69;4957724;28;96914;-47
2022/08/15 00:30:36;;;;;;;3.37;3.17;;;;;;;26.15;41.92;100269.47;4958297;28;97061;-47
2022/08/15 00:33:03;;;;;;;3.70;3.50;;;;;;;26.13;42.00;100266.53;4962306;28;97333;-48
2022/08/15 00:35:39;;;;;;;4.07;3.80;;;;;;;26.11;41.99;100260.78;4960575;28;97214;-48
2022/08/15 00:38:25;;;;;;;4.00;3.70;;;;;;;26.08;42.30;100264.78;4962257;28;97064;-47
2022/08/15 00:43:41;;;;;;;3.67;3.23;;;;;;;26.02;41.88;100253.13;4956831;28;101735;-47
2022/08/15 00:46:10;;;;;;;3.93;3.63;;;;;;;25.97;42.26;100254.25;4960331;28;97495;-47
2022/08/15 00:48:41;;;;;;;4.00;3.70;;;;;;;25.94;42.22;100256.19;4960728;28;97100;-47
2022/08/15 00:51:21;;;;;;;3.83;3.63;;;;;;;25.92;42.33;100249.69;4959780;28;99296;-47
2022/08/15 00:53:52;;;;;;;7.00;3.43;;;;;;;25.87;42.49;100247.97;4959385;28;101241;-47
2022/08/15 00:56:20;;;;;;;3.87;3.57;;;;;;;25.84;42.42;100252.00;4959956;28;97415;-47
2022/08/15 00:58:46;;;;;;;3.23;3.00;;;;;;;25.80;42.20;100246.84;4957040;28;97366;-48
2022/08/15 01:01:14;;;;;;;4.00;3.70;;;;;;;25.76;42.48;100240.22;4963303;28;97220;-47
2022/08/15 01:03:43;;;;;;;3.70;3.50;;;;;;;25.73;42.62;100241.44;4959637;28;98601;-47
2022/08/15 01:06:09;;;;;;;3.77;3.20;;;;;;;25.68;42.85;100251.72;4957194;28;97232;-47
2022/08/15 01:08:38;;;;;;;3.83;3.53;;;;;;;25.65;42.65;100252.94;4961407;28;97050;-46
2022/08/15 01:11:15;;;;;;;3.67;3.23;;;;;;;25.61;43.80;100249.13;4959945;28;97530;-47
2022/08/15 01:13:41;;;;;;;6.60;3.13;;;;;;;25.58;43.33;100244.69;4961175;28;97409;-47
2022/08/15 01:16:07;;;;;;;3.40;3.20;;;;;;;25.55;43.18;100243.09;4962249;28;98392;-46
2022/08/15 01:18:32;;;;;;;3.50;3.30;;;;;;;25.52;43.28;100245.06;4961573;28;97274;-48
2022/08/15 01:21:04;;;;;;;3.30;3.10;;;;;;;25.50;43.43;100247.00;4958283;28;96876;-47
2022/08/15 01:24:02;;;;;;;3.73;3.43;;;;;;;25.45;43.83;100242.44;4958017;28;100946;-47
2022/08/15 01:26:28;;;;;;;4.00;3.80;;;;;;;25.40;43.68;100235.06;4942921;28;100177;-47
2022/08/15 01:28:55;;;;;;;4.00;3.80;;;;;;;25.37;43.92;100239.81;4960693;28;97200;-47
2022/08/15 01:31:22;;;;;;;4.47;4.13;;;;;;;25.36;44.12;100232.00;4959020;28;96914;-47
2022/08/15 01:33:53;;;;;;;3.90;3.70;;;;;;;25.31;44.04;100240.16;4959677;28;97461;-50
2022/08/15 01:36:20;;;;;;;3.70;3.50;;;;;;;25.25;43.72;100236.94;4953208;28;98487;-47
2022/08/15 01:38:56;;;;;;;4.20;3.90;;;;;;;25.17;44.14;100244.13;4956333;28;98816;-47
2022/08/15 01:41:59;;;;;;;3.10;3.00;;;;;;;25.07;44.06;100235.03;4955343;28;96998;-47
2022/08/15 01:44:59;;;;;;;3.73;3.53;;;;;;;25.01;44.37;100229.72;4956843;28;100606;-47
2022/08/15 01:47:36;;;;;;;3.73;3.53;;;;;;;24.96;44.03;100230.81;4955635;28;101372;-47
2022/08/15 01:50:23;;;;;;;4.20;3.90;;;;;;;24.90;44.19;100232.50;4958078;28;97188;-47
2022/08/15 01:53:08;;;;;;;4.10;3.63;;;;;;;24.88;44.42;100226.75;4955360;28;98060;-47
2022/08/15 01:55:43;;;;;;;3.30;3.10;;;;;;;24.83;44.32;100236.25;4953965;28;103629;-46
2022/08/15 01:58:08;;;;;;;3.57;3.37;;;;;;;24.79;44.27;100227.53;4951630;28;100110;-46
2022/08/15 02:00:35;;;;;;;3.50;3.30;;;;;;;24.76;44.29;100228.72;4953158;28;97069;-48
2022/08/15 02:03:01;;;;;;;3.40;3.20;;;;;;;24.67;43.95;100224.63;4952463;28;97115;-46
2022/08/15 02:05:27;;;;;;;4.43;4.13;;;;;;;24.57;44.43;100223.94;4954206;28;97501;-46
2022/08/15 02:07:52;;;;;;;4.27;4.03;;;;;;;24.52;44.24;100234.19;4959437;28;98386;-46
2022/08/15 02:10:18;;;;;;;3.90;3.60;;;;;;;24.50;44.45;100222.06;4955360;28;97538;-46
2022/08/15 02:12:43;;;;;;;3.50;3.30;;;;;;;24.44;44.67;100218.84;4955681;28;97487;-46
2022/08/15 02:15:13;;;;;;;4.30;4.00;;;;;;;24.37;44.59;100217.69;4961071;28;98727;-45
2022/08/15 02:17:40;;;;;;;3.77;3.57;;;;;;;24.31;44.46;100211.63;4954736;28;97334;-46
2022/08/15 02:20:07;;;;;;;4.90;3.47;;;;;;;24.25;44.98;100205.59;4953191;28;97061;-48
2022/08/15 02:22:32;;;;;;;3.73;3.53;;;;;;;24.23;44.82;100211.09;4955338;28;97394;-45
2022/08/15 02:24:59;;;;;;;3.57;3.37;;;;;;;24.21;44.86;100213.03;4950998;28;97554;-48
2022/08/15 02:27:27;;;;;;;3.50;3.30;;;;;;;24.16;45.11;100205.63;4955195;28;97345;-49
2022/08/15 02:29:52;;;;;;;4.23;3.90;;;;;;;24.09;44.89;100198.84;4956508;28;97015;-47
2022/08/15 02:32:18;;;;;;;5.10;2.80;;;;;;;24.05;44.92;100198.59;4954734;28;97868;-45
2022/08/15 02:34:46;;;;;;;3.37;3.13;;;;;;;24.04;45.04;100201.97;4953610;28;97413;-47
2022/08/15 02:37:18;;;;;;;4.83;3.53;;;;;;;23.96;45.00;100202.13;4955706;28;97063;-46
2022/08/15 02:39:48;;;;;;;3.90;3.30;;;;;;;23.93;45.31;100197.72;4954239;28;97554;-48
2022/08/15 02:42:19;;;;;;;4.33;4.03;;;;;;;23.91;45.45;100197.59;4952549;28;97559;-46
2022/08/15 02:44:50;;;;;;;4.00;3.67;;;;;;;23.89;45.27;100202.31;4956084;28;102576;-49
2022/08/15 02:47:16;;;;;;;3.30;3.10;;;;;;;23.83;45.54;100199.81;4953688;28;101481;-47
2022/08/15 02:49:45;;;;;;;3.70;3.40;;;;;;;23.78;45.70;100198.81;4954774;28;97141;-45
2022/08/15 02:52:12;;;;;;;3.73;3.53;;;;;;;23.74;45.60;100198.50;4950777;28;96855;-48
2022/08/15 02:54:38;;;;;;;3.50;3.30;;;;;;;23.70;45.76;100195.41;4956435;28;97852;-48
2022/08/15 02:57:04;;;;;;;4.07;3.80;;;;;;;23.66;45.77;100197.19;4952934;28;97245;-47
2022/08/15 02:59:30;;;;;;;3.80;3.50;;;;;;;23.62;45.80;100194.13;4956075;28;97177;-48
2022/08/15 03:01:57;;;;;;;4.13;3.83;;;;;;;23.66;46.00;100194.41;4953343;28;96969;-45
2022/08/15 03:04:25;;;;;;;4.20;3.70;;;;;;;23.67;45.88;100193.81;4953196;28;98015;-47
2022/08/15 03:06:53;;;;;;;4.00;3.70;;;;;;;23.64;45.86;100203.44;4956491;28;97197;-45
2022/08/15 03:09:20;;;;;;;3.80;3.60;;;;;;;23.63;45.81;100201.22;4955878;28;96959;-46
2022/08/15 03:11:46;;;;;;;4.33;4.00;;;;;;;23.61;46.10;100201.06;4956125;28;96630;-48
2022/08/15 03:14:19;;;;;;;4.10;3.70;;;;;;;23.61;46.19;100187.03;4952618;28;97474;-47
2022/08/15 03:16:46;;;;;;;3.80;3.50;;;;;;;23.60;46.17;100196.78;4949639;28;100009;-47
2022/08/15 03:19:16;;;;;;;4.17;3.87;;;;;;;23.56;46.25;100194.44;4952496;28;98149;-51
2022/08/15 03:21:42;;;;;;;3.83;3.63;;;;;;;23.53;46.46;100201.22;4954661;28;97341;-48
2022/08/15 03:24:09;;;;;;;3.83;3.53;;;;;;;23.52;46.43;100199.03;4957732;28;98090;-49
2022/08/15 03:26:35;;;;;;;4.47;4.00;;;;;;;23.49;46.46;100200.94;4955819;28;96932;-48
2022/08/15 03:29:01;;;;;;;6.23;3.13;;;;;;;23.44;46.55;100193.56;4953024;28;97298;-48
2022/08/15 03:31:26;;;;;;;4.10;3.80;;;;;;;23.40;46.60;100192.53;4955441;28;97586;-47
2022/08/15 03:33:52;;;;;;;3.60;3.40;;;;;;;23.39;46.63;100191.06;4954068;28;96930;-45
2022/08/15 03:36:20;;;;;;;4.00;3.80;;;;;;;23.39;46.68;100191.06;4954820;28;97403;-48
2022/08/15 03:38:47;;;;;;;3.47;3.27;;;;;;;23.38;46.94;100189.56;4951684;28;97387;-47
2022/08/15 03:41:14;;;;;;;3.70;3.50;;;;;;;23.37;46.82;100186.03;4953376;28;98359;-45
2022/08/15 03:43:41;;;;;;;3.80;3.60;;;;;;;23.38;46.94;100190.31;4957612;28;97148;-47
2022/08/15 03:46:10;;;;;;;3.90;3.60;;;;;;;23.40;47.10;100181.28;4954376;28;101559;-46
2022/08/15 03:48:45;;;;;;;4.03;3.77;;;;;;;23.41;46.97;100180.72;4945765;28;97195;-47
2022/08/15 03:51:11;;;;;;;6.37;3.53;;;;;;;23.43;47.22;100178.06;4954265;28;97452;-46
2022/08/15 03:53:49;;;;;;;3.53;3.23;;;;;;;23.45;47.40;100172.59;4954969;28;97445;-46
2022/08/15 03:56:19;;;;;;;3.70;3.50;;;;;;;23.45;47.35;100181.00;4952085;28;101574;-47
2022/08/15 03:58:45;;;;;;;3.27;3.10;;;;;;;23.49;47.23;100178.47;4951823;28;97139;-47
2022/08/15 04:01:17;;;;;;;3.40;3.10;;;;;;;23.53;47.50;100178.03;4951138;28;97156;-46
2022/08/15 04:03:44;;;;;;;3.20;3.00;;;;;;;23.56;47.39;100177.59;4948966;28;97303;-49
2022/08/15 04:06:11;;;;;;;5.80;3.47;;;;;;;23.60;47.32;100177.88;4955404;28;97374;-47
2022/08/15 04:08:38;;;;;;;3.33;3.13;;;;;;;23.61;47.28;100176.53;4955073;28;97983;-47
2022/08/15 04:11:05;;;;;;;3.70;3.40;;;;;;;23.65;47.36;100198.56;4957657;28;96901;-47
2022/08/15 04:13:31;;;;;;;3.63;3.33;;;;;;;23.67;47.17;100176.97;4950514;28;100679;-48
2022/08/15 04:15:59;;;;;;;3.30;3.10;;;;;;;23.71;47.24;100182.13;4948875;28;97736;-47
2022/08/15 04:18:27;;;;;;;3.30;3.10;;;;;;;23.69;47.41;100176.38;4949865;28;97239;-46
2022/08/15 04:20:58;;;;;;;3.63;3.17;;;;;;;23.70;47.89;100172.94;4955162;28;96841;-50
2022/08/15 04:23:25;;;;;;;3.20;3.00;;;;;;;23.74;47.44;100169.69;4958198;28;97157;-47
2022/08/15 04:25:51;;;;;;;3.37;3.07;;;;;;;23.78;47.63;100173.53;4955234;28;98539;-48
2022/08/15 04:28:18;;;;;;;3.50;3.20;;;;;;;23.80;47.53;100170.88;4950841;28;98694;-53
2022/08/15 04:30:47;;;;;;;3.10;2.90;;;;;;;23.83;47.59;100174.53;4953375;28;97198;-49
2022/08/15 04:33:12;;;;;;;3.43;3.23;;;;;;;23.87;47.48;100174.84;4952182;28;96902;-49
2022/08/15 04:35:40;;;;;;;3.13;2.93;;;;;;;23.90;47.56;100179.25;4948918;28;97023;-47
2022/08/15 04:38:06;;;;;;;3.20;2.90;;;;;;;23.91;47.42;100177.19;4952604;28;97139;-46
2022/08/15 04:40:32;;;;;;;3.30;3.10;;;;;;;23.94;47.54;100176.69;4957012;28;97355;-46
2022/08/15 04:42:58;;;;;;;2.93;2.73;;;;;;;23.97;47.46;100169.91;4954234;28;97740;-46
2022/08/15 04:45:25;;;;;;;2.80;2.70;;;;;;;24.02;47.51;100170.91;4954924;28;97185;-46
2022/08/15 04:47:51;;;;;;;3.00;2.90;;;;;;;24.05;47.41;100169.75;4954491;28;96854;-49
2022/08/15 04:50:17;;;;;;;2.80;2.60;;;;;;;24.08;47.50;100177.72;4951598;28;98389;-46
2022/08/15 04:52:49;;;;;;;3.50;3.20;;;;;;;24.09;47.65;100176.38;4951487;28;97440;-49
2022/08/15 04:55:15;;;;;;;3.17;2.97;;;;;;;24.08;47.61;100148.88;4955037;28;102722;-46
2022/08/15 04:57:41;;;;;;;3.80;3.50;;;;;;;24.10;47.82;100166.63;4954689;28;97049;-47
2022/08/15 05:00:10;;;;;;;3.30;3.00;;;;;;;24.13;47.68;100157.00;4954969;28;96980;-46
2022/08/15 05:02:37;;;;;;;4.00;3.00;;;;;;;24.17;47.91;100159.34;4952712;28;97531;-48
2022/08/15 05:05:03;;;;;;;3.80;3.43;;;;;;;24.20;47.84;100152.53;4951902;28;97563;-47
2022/08/15 05:07:29;;;;;;;3.33;3.13;;;;;;;24.28;47.51;100158.69;4955081;28;97152;-47
2022/08/15 05:09:56;;;;;;;3.50;3.30;;;;;;;24.34;47.40;100161.91;4954217;28;96874;-48
2022/08/15 05:12:23;;;;;;;3.37;3.17;;;;;;;24.39;47.47;100158.78;4959425;28;98639;-46
2022/08/15 05:14:48;;;;;;;3.60;3.40;;;;;;;24.44;47.57;100154.16;4957056;28;97066;-51
2022/08/15 05:17:13;;;;;;;3.40;3.10;;;;;;;24.47;47.58;100153.69;4953442;28;96971;-46
2022/08/15 05:19:39;;;;;;;3.30;3.00;;;;;;;24.52;47.41;100152.63;4956610;28;97064;-48
2022/08/15 05:22:04;;;;;;;3.10;2.83;;;;;;;24.58;47.50;100141.03;4955654;28;97341;-50
2022/08/15 05:24:29;;;;;;;3.50;3.30;;;;;;;24.62;47.52;100134.94;4956533;28;97221;-46
2022/08/15 05:26:55;;;;;;;3.37;3.17;;;;;;;24.66;47.68;100144.34;4953392;28;97040;-50
2022/08/15 05:29:21;;;;;;;4.47;4.17;;;;;;;24.71;47.68;100143.28;4957951;28;97083;-47
2022/08/15 05:31:46;;;;;;;3.50;3.20;;;;;;;24.75;47.50;100137.25;4956796;28;97402;-47
2022/08/15 05:34:11;;;;;;;3.73;3.43;;;;;;;24.78;47.45;100142.38;4959245;28;97483;-51
2022/08/15 05:36:37;;;;;;;3.33;3.13;;;;;;;24.82;47.71;100145.47;4956467;28;97227;-47
2022/08/15 05:39:22;;;;;;;4.30;3.90;;;;;;;24.88;48.10;100147.94;4953057;28;97413;-48
2022/08/15 05:41:58;;;;;;;3.63;3.33;;;;;;;24.92;47.75;100139.75;4956826;28;98996;-49
2022/08/15 05:44:35;;;;;;;3.57;3.27;;;;;;;24.95;47.82;100128.00;4954217;28;97822;-48
2022/08/15 05:47:23;;;;;;;4.17;3.43;;;;;;;24.96;48.05;100135.13;4955526;28;97219;-50
2022/08/15 05:49:59;;;;;;;4.37;3.97;;;;;;;25.00;47.30;100140.28;4954176;28;97151;-48
2022/08/15 05:52:36;;;;;;;5.00;3.43;;;;;;;25.02;47.33;100138.31;4957334;28;97736;-48
2022/08/15 05:55:13;;;;;;;6.30;3.90;;;;;;;25.04;47.48;100132.81;4954660;28;97024;-48
2022/08/15 05:57:56;;;;;;;5.10;3.50;;;;;;;25.06;47.66;100132.22;4954210;28;96915;-47
2022/08/15 06:00:24;;;;;;;3.83;3.47;;;;;;;25.10;47.06;100127.56;4954933;28;97065;-49
2022/08/15 06:03:08;;;;;;;4.30;3.77;;;;;;;25.15;47.36;100126.50;4955318;28;97572;-51
2022/08/15 06:05:40;;;;;;;10.40;4.27;;;;;;;25.20;47.29;100136.69;4955943;28;96782;-50
2022/08/15 06:08:13;;;;;;;3.80;3.50;;;;;;;25.24;47.25;100134.13;4957224;28;97198;-46
2022/08/15 06:10:46;;;;;;;4.50;3.90;;;;;;;25.29;47.22;100137.94;4945974;28;97793;-49
2022/08/15 06:13:34;;;;;;;3.53;3.30;;;;;;;25.31;46.81;100133.13;4950646;28;97851;-50
2022/08/15 06:16:16;;;;;;;3.90;3.60;;;;;;;25.41;47.19;100137.94;4954441;28;96871;-51
2022/08/15 06:18:43;;;;;;;3.67;3.37;;;;;;;25.46;46.92;100148.16;4950956;28;97346;-47
2022/08/15 06:21:17;;;;;;;3.80;3.60;;;;;;;25.52;47.19;100132.34;4954960;28;97007;-50
2022/08/15 06:24:12;;;;;;;4.20;3.90;;;;;;;25.53;46.93;100133.09;4949489;28;97132;-50
2022/08/15 06:26:46;;;;;;;3.93;3.63;;;;;;;25.59;46.88;100130.66;4952246;28;101921;-47
2022/08/15 06:29:17;;;;;;;4.03;3.70;;;;;;;25.66;46.80;100132.50;4954337;28;97339;-48
2022/08/15 06:32:01;;;;;;;5.37;4.10;;;;;;;25.71;46.90;100134.94;4952068;28;97144;-50
2022/08/15 06:34:58;;;;;;;3.60;3.40;;;;;;;25.78;46.65;100133.25;4912686;28;97376;-48
2022/08/15 06:37:32;;;;;;;4.00;3.70;;;;;;;25.84;46.47;100131.53;4950397;28;102939;-47
2022/08/15 06:40:08;;;;;;;3.90;3.70;;;;;;;25.91;46.75;100132.63;4927061;28;96907;-50
2022/08/15 06:42:34;;;;;;;4.00;3.70;;;;;;;25.98;46.56;100135.22;4953658;28;97525;-47
2022/08/15 06:45:05;;;;;;;4.27;3.93;;;;;;;26.06;46.61;100131.41;4957440;28;98005;-50
2022/08/15 06:47:32;;;;;;;4.80;3.80;;;;;;;26.11;46.42;100139.53;4955745;28;99455;-47
2022/08/15 06:50:09;;;;;;;3.83;3.63;;;;;;;26.18;46.47;100141.34;4953305;28;97274;-49
2022/08/15 06:52:34;;;;;;;4.63;4.10;;;;;;;26.22;46.16;100140.84;4954180;28;96820;-47
2022/08/15 06:55:00;;;;;;;4.83;4.27;;;;;;;26.28;46.54;100141.22;4953571;28;96766;-51
2022/08/15 06:57:41;;;;;;;4.43;4.03;;;;;;;26.34;46.30;100135.94;4953189;28;98361;-49
2022/08/15 07:00:19;;;;;;;4.77;4.43;;;;;;;26.40;45.93;100137.03;4953993;28;96926;-50
2022/08/15 07:03:19;;;;;;;4.23;3.93;;;;;;;26.44;46.14;100130.88;4953651;28;97503;-50
2022/08/15 07:05:50;;;;;;;4.40;4.10;;;;;;;26.50;45.87;100128.41;4955345;28;102880;-49
2022/08/15 07:08:44;;;;;;;3.67;3.40;;;;;;;26.53;45.85;100125.09;4953133;28;97428;-48
2022/08/15 07:11:15;;;;;;;4.10;3.80;;;;;;;26.60;45.78;100129.00;4948253;28;97298;-47
2022/08/15 07:13:59;;;;;;;4.13;3.83;;;;;;;26.64;45.89;100129.25;4954961;28;97248;-47
2022/08/15 07:16:35;;;;;;;5.27;4.77;;;;;;;26.66;45.66;100121.63;4954927;28;100604;-48
2022/08/15 07:19:02;;;;;;;5.30;4.60;;;;;;;26.73;45.93;100131.22;4955815;28;97144;-47
2022/08/15 07:21:27;;;;;;;5.07;4.70;;;;;;;26.76;45.94;100132.78;4954295;28;97857;-48
2022/08/15 07:24:01;;;;;;;4.20;3.90;;;;;;;26.81;45.68;100128.09;4949644;28;97330;-48
2022/08/15 07:26:37;;;;;;;4.30;4.00;;;;;;;26.83;45.55;100128.94;4951316;28;101308;-47
2022/08/15 07:29:10;;;;;;;4.43;4.13;;;;;;;26.90;45.49;100124.38;4952883;28;101507;-46
2022/08/15 07:31:37;;;;;;;4.80;4.40;;;;;;;26.95;45.45;100123.25;4957270;28;97043;-49
2022/08/15 07:34:22;;;;;;;5.27;4.63;;;;;;;27.02;45.33;100127.91;4951304;28;97085;-46
2022/08/15 07:36:55;;;;;;;4.00;3.70;;;;;;;27.10;45.52;100136.81;4953753;28;101818;-48
2022/08/15 07:39:36;;;;;;;4.50;4.20;;;;;;;27.16;45.25;100142.81;4950841;28;97005;-46
2022/08/15 07:42:18;;;;;;;4.33;4.07;;;;;;;27.22;44.78;100138.22;4952525;28;96870;-47
2022/08/15 07:44:57;;;;;;;4.97;4.67;;;;;;;27.28;44.91;100137.84;4959712;28;97018;-47
2022/08/15 07:47:26;;;;;;;4.20;3.90;;;;;;;27.35;44.64;100133.97;4950637;28;97003;-48
2022/08/15 07:50:27;;;;;;;4.27;3.97;;;;;;;27.41;44.52;100140.72;4953637;28;97656;-50
2022/08/15 07:52:56;;;;;;;4.70;4.40;;;;;;;27.50;44.68;100136.22;4950768;28;96815;-47
2022/08/15 07:55:22;;;;;;;4.40;4.13;;;;;;;27.57;44.64;100145.78;4954260;28;97415;-49
2022/08/15 07:58:06;;;;;;;4.80;4.50;;;;;;;27.63;44.72;100135.53;4954998;28;102892;-50
2022/08/15 08:00:34;;;;;;;5.00;4.70;;;;;;;27.71;44.60;100141.63;4955764;28;100249;-47
2022/08/15 08:03:18;;;;;;;5.20;4.80;;;;;;;27.78;44.57;100137.78;4952551;28;98122;-47
2022/08/15 08:06:05;;;;;;;5.30;4.90;;;;;;;27.85;44.19;100141.66;4948914;28;97103;-48
2022/08/15 08:08:41;;;;;;;4.80;4.40;;;;;;;27.93;43.93;100144.91;4952699;28;100794;-52
2022/08/15 08:11:11;;;;;;;4.63;4.30;;;;;;;28.01;43.99;100146.09;4952575;28;101476;-51
2022/08/15 08:13:39;;;;;;;4.93;4.57;;;;;;;28.08;43.87;100133.75;4954815;28;97454;-48
2022/08/15 08:16:19;;;;;;;5.27;4.77;;;;;;;28.15;43.78;100138.31;4953640;28;98117;-49
2022/08/15 08:19:31;;;;;;;5.03;4.50;;;;;;;28.22;43.66;100135.81;4954393;28;102185;-47
2022/08/15 08:21:56;;;;;;;5.17;4.27;;;;;;;28.31;43.72;100132.75;4954574;28;100008;-49
2022/08/15 08:24:35;;;;;;;5.00;4.70;;;;;;;28.40;43.53;100133.91;4952212;28;97394;-49
2022/08/15 08:27:15;;;;;;;5.10;4.70;;;;;;;28.48;43.66;100132.25;4953868;28;97329;-47
2022/08/15 08:30:06;;;;;;;6.80;4.83;;;;;;;28.56;43.95;100129.06;4951441;28;97116;-47
2022/08/15 08:32:46;;;;;;;5.00;4.50;;;;;;;28.68;43.13;100129.72;4931174;28;101472;-50
2022/08/15 08:35:26;;;;;;;5.20;4.80;;;;;;;28.81;43.10;100131.78;4951044;28;97178;-50
2022/08/15 08:38:00;;;;;;;5.00;4.60;;;;;;;28.90;42.88;100128.69;4951766;28;97306;-49
2022/08/15 08:43:28;;;;;;;4.40;4.10;;;;;;;29.13;43.05;100121.25;4952303;28;100124;-48
2022/08/15 08:46:05;;;;;;;4.60;4.30;;;;;;;29.23;42.52;100133.81;4951834;28;97144;-48
2022/08/15 08:48:58;;;;;;;4.83;4.43;;;;;;;29.34;42.16;100129.34;4955744;28;97148;-47
2022/08/15 08:51:44;;;;;;;5.27;4.73;;;;;;;29.44;42.09;100124.19;4954730;28;100652;-49
2022/08/15 08:54:32;;;;;;;4.57;4.03;;;;;;;29.53;41.85;100118.22;4955103;28;101388;-51
2022/08/15 08:57:01;;;;;;;5.50;4.90;;;;;;;29.64;41.82;100113.75;4950627;28;98323;-50
2022/08/15 08:59:39;;;;;;;4.60;4.30;;;;;;;29.73;41.17;100115.56;4956352;28;97606;-47
2022/08/15 09:02:10;;;;;;;5.17;4.87;;;;;;;29.88;41.08;100114.84;4953916;28;97676;-48
2022/08/15 09:04:41;;;;;;;4.97;4.50;;;;;;;30.06;41.25;100112.06;4960136;28;97237;-46
2022/08/15 09:07:10;;;;;;;5.53;4.97;;;;;;;30.26;40.77;100110.84;4956870;28;96774;-48
2022/08/15 09:09:39;;;;;;;4.67;4.37;;;;;;;30.52;40.80;100104.84;4958599;28;96701;-47
2022/08/15 09:15:02;;;;;;;9.60;5.23;;;;;;;31.00;39.74;100109.66;4958080;28;101303;-50
2022/08/15 09:17:33;;;;;;;5.10;4.70;;;;;;;31.15;39.69;100108.13;4953820;28;97328;-50
2022/08/15 09:20:22;;;;;;;4.93;4.63;;;;;;;31.38;39.22;100104.75;4957392;28;97378;-49
2022/08/15 09:22:49;;;;;;;5.70;5.30;;;;;;;31.57;39.40;100104.81;4957724;28;101263;-50
2022/08/15 09:25:14;;;;;;;5.00;4.70;;;;;;;31.72;38.74;100095.41;4954787;28;97068;-48
2022/08/15 09:27:50;;;;;;;5.70;5.20;;;;;;;31.88;38.22;100103.06;4958785;28;96840;-49
2022/08/15 09:30:18;;;;;;;4.80;4.40;;;;;;;32.02;38.51;100112.16;4960155;28;100804;-51
2022/08/15 09:33:07;;;;;;;4.67;4.37;;;;;;;32.15;37.57;100102.66;4958602;28;97434;-50
2022/08/15 09:35:56;;;;;;;4.60;4.23;;;;;;;32.31;37.01;100100.34;4956209;28;100038;-51
2022/08/15 09:38:50;;;;;;;4.50;4.10;;;;;;;32.42;36.51;100102.13;4957407;28;98167;-52
2022/08/15 09:41:34;;;;;;;4.10;3.80;;;;;;;32.60;37.30;100097.09;4957367;28;98009;-49
2022/08/15 09:44:23;;;;;;;7.43;4.80;;;;;;;32.84;35.99;100082.88;4956382;28;101934;-48
2022/08/15 09:47:24;;;;;;;4.17;3.87;;;;;;;33.00;35.91;100087.00;4956359;28;97859;-48
2022/08/15 09:50:05;;;;;;;7.63;4.10;;;;;;;32.97;35.59;100090.41;4955832;28;96994;-47
2022/08/15 09:52:52;;;;;;;4.90;4.50;;;;;;;32.84;35.58;100085.72;4953548;28;97284;-50
2022/08/15 09:55:46;;;;;;;4.30;4.00;;;;;;;32.78;36.35;100085.56;4956976;28;101355;-50
2022/08/15 09:58:28;;;;;;;4.50;4.10;;;;;;;32.77;36.02;100081.97;4956746;28;100061;-48
2022/08/15 10:01:12;;;;;;;6.27;4.97;;;;;;;32.78;35.92;100082.69;4954374;28;97055;-46
2022/08/15 10:03:43;;;;;;;4.37;4.07;;;;;;;32.81;35.86;100084.22;4957036;28;98018;-48
2022/08/15 10:06:14;;;;;;;4.90;4.60;;;;;;;32.80;36.08;100068.50;4954785;28;97694;-47
2022/08/15 10:08:54;;;;;;;4.47;4.17;;;;;;;32.78;34.94;100077.00;4956008;28;96928;-48
2022/08/15 10:11:32;;;;;;;5.33;4.70;;;;;;;32.80;35.51;100069.25;4956260;28;96999;-48
2022/08/15 10:14:08;;;;;;;5.20;4.87;;;;;;;32.88;35.17;100074.47;4952347;28;97241;-50
2022/08/15 10:16:36;;;;;;;4.57;4.00;;;;;;;32.96;35.23;100075.44;4959095;28;97451;-47
2022/08/15 10:19:08;;;;;;;4.83;4.53;;;;;;;33.07;35.33;100073.69;4954259;28;97276;-48
2022/08/15 10:21:44;;;;;;;4.70;4.37;;;;;;;33.23;34.80;100074.16;4956168;28;97531;-46
2022/08/15 10:24:28;;;;;;;4.50;4.20;;;;;;;33.35;34.15;100077.38;4956081;28;96850;-48
2022/08/15 10:27:07;;;;;;;4.50;4.20;;;;;;;33.43;34.25;100071.16;4953390;28;97078;-47
2022/08/15 10:29:34;;;;;;;4.67;4.40;;;;;;;33.45;34.64;100074.81;4954923;28;102382;-47
2022/08/15 10:32:01;;;;;;;4.20;3.90;;;;;;;33.45;34.40;100074.06;4956496;28;97217;-49
2022/08/15 10:34:37;;;;;;;4.77;4.20;;;;;;;33.40;33.87;100073.22;4957476;28;97219;-49
2022/08/15 10:37:31;;;;;;;4.20;3.90;;;;;;;33.33;33.42;100068.75;4954538;28;97038;-49
2022/08/15 10:40:00;;;;;;;5.23;4.73;;;;;;;33.32;33.87;100067.28;4954409;28;102672;-48
2022/08/15 10:42:45;;;;;;;5.03;4.57;;;;;;;33.33;33.69;100065.19;4958018;28;97117;-49
2022/08/15 10:45:13;;;;;;;4.97;3.77;;;;;;;33.38;34.38;100072.44;4960964;28;98272;-49
2022/08/15 10:47:51;;;;;;;4.27;4.07;;;;;;;33.42;33.80;100064.00;4955583;28;97510;-50
2022/08/15 10:50:25;;;;;;;4.00;3.60;;;;;;;33.45;34.18;100059.81;4952567;28;97141;-48
2022/08/15 10:53:15;;;;;;;4.40;4.00;;;;;;;33.46;33.81;100053.44;4951969;28;96769;-49
2022/08/15 10:55:41;;;;;;;4.43;4.13;;;;;;;33.53;34.37;100052.22;4957741;28;97188;-48
2022/08/15 10:58:26;;;;;;;3.97;3.77;;;;;;;33.58;33.80;100039.53;4956692;28;97023;-48
2022/08/15 11:01:03;;;;;;;4.70;4.30;;;;;;;33.63;34.15;100051.78;4954907;28;98824;-49
2022/08/15 11:03:55;;;;;;;4.03;3.73;;;;;;;33.67;33.59;100046.19;4953067;28;97178;-48
2022/08/15 11:06:23;;;;;;;4.57;4.27;;;;;;;33.74;33.87;100044.97;4952035;28;97291;-47
2022/08/15 11:08:57;;;;;;;4.30;4.00;;;;;;;33.82;34.18;100042.31;4954161;28;98663;-49
2022/08/15 11:11:26;;;;;;;4.73;4.43;;;;;;;33.91;34.23;100044.75;4953816;28;97746;-50
2022/08/15 11:13:58;;;;;;;5.37;4.87;;;;;;;33.99;33.82;100042.09;4951999;28;97240;-50
2022/08/15 11:16:36;;;;;;;4.33;4.07;;;;;;;34.03;33.53;100047.22;4956914;28;96920;-51
2022/08/15 11:19:33;;;;;;;4.50;4.20;;;;;;;34.07;33.18;100040.88;4953210;28;97352;-48
2022/08/15 11:22:08;;;;;;;4.27;4.07;;;;;;;34.12;33.33;100043.16;4955551;28;102572;-50
2022/08/15 11:24:40;;;;;;;4.40;4.17;;;;;;;34.20;33.05;100036.94;4950572;28;98677;-47
2022/08/15 11:27:13;;;;;;;4.13;3.73;;;;;;;34.25;32.49;100035.63;4957297;28;97408;-48
2022/08/15 11:29:39;;;;;;;4.13;3.90;;;;;;;34.39;32.65;100025.28;4951668;28;97274;-49
2022/08/15 11:32:06;;;;;;;4.67;4.37;;;;;;;34.51;32.69;100033.44;4954033;28;96966;-50
2022/08/15 11:34:41;;;;;;;4.73;4.33;;;;;;;34.59;32.05;100025.06;4955229;28;97334;-48
2022/08/15 11:37:15;;;;;;;4.37;4.00;;;;;;;34.61;32.22;100025.09;4950275;28;98062;-52
2022/08/15 11:39:45;;;;;;;3.70;3.50;;;;;;;34.65;32.34;100028.78;4952344;28;98721;-50
2022/08/15 11:42:17;;;;;;;4.47;4.20;;;;;;;34.65;32.00;100025.94;4958449;28;97084;-48
2022/08/15 11:44:56;;;;;;;3.90;3.60;;;;;;;34.65;31.61;100017.34;4957979;28;97162;-48
2022/08/15 11:47:23;;;;;;;3.57;3.30;;;;;;;34.68;31.51;100010.28;4952911;28;96834;-47
2022/08/15 11:49:59;;;;;;;3.90;3.70;;;;;;;34.73;31.42;100011.09;4951796;28;97423;-47
2022/08/15 11:52:26;;;;;;;5.00;3.90;;;;;;;34.89;31.67;99999.28;4951674;28;97401;-50
2022/08/15 11:55:17;;;;;;;3.37;3.17;;;;;;;35.16;30.32;100004.19;4956609;28;96887;-50
2022/08/15 11:57:49;;;;;;;3.67;3.47;;;;;;;35.20;30.76;100002.16;4956016;28;97360;-48
2022/08/15 12:00:39;;;;;;;3.87;3.57;;;;;;;35.15;30.21;100003.47;4952058;28;97093;-49